Ninde, Virginia
Current Conditions -  °F | °C
As of 7:56 PM on Monday 24 Nov 2014 (Local Time) from KNYG Reporting Station
Few Clouds Few Clouds  
Wind Chill: 12°   Ceiling: Unl
Heat Index: 12°   Visibility: 10mi
Dew Point:   Wind: 8mph
Humidity: 83%   Direction: 220°SW
Pressure: 29.75"   Gusts: NA
Location:  38.27°N, 77.06°W
Report Text: KNYG 250056Z 22007KT 10SM FEW100 12/09 A2975 RMK AO2 SLP073 T01220094 $
Loading
Personal Weather Stations






























Interactive Weather Map New forecast layout! Learn more

10-Day Weather Forecast

Advertisements
Track Severe Weather on mobile